createdAt,value
2019-03-26T00:00:06.160Z,4.17
2019-03-26T00:02:34.456Z,3.93
2019-03-26T00:05:02.737Z,4.57
2019-03-26T00:07:31.037Z,4.23
2019-03-26T00:09:59.326Z,4.10
2019-03-26T00:12:27.620Z,4.13
2019-03-26T00:14:56.247Z,4.30
2019-03-26T00:17:24.546Z,4.23
2019-03-26T00:19:53.096Z,4.50
2019-03-26T00:22:21.459Z,4.37
2019-03-26T00:24:49.756Z,4.43
2019-03-26T00:27:18.056Z,5.13
2019-03-26T00:29:46.332Z,4.47
2019-03-26T00:32:14.623Z,4.40
2019-03-26T00:34:42.900Z,5.30
2019-03-26T00:37:11.195Z,4.53
2019-03-26T00:39:39.479Z,4.60
2019-03-26T00:42:07.777Z,5.17
2019-03-26T00:44:36.057Z,5.40
2019-03-26T00:47:04.738Z,5.43
2019-03-26T00:49:33.022Z,5.00
2019-03-26T00:52:01.295Z,5.07
2019-03-26T00:54:29.586Z,5.20
2019-03-26T00:56:57.875Z,4.30
2019-03-26T00:59:26.433Z,5.33
2019-03-26T01:01:54.720Z,5.27
2019-03-26T01:04:32.606Z,5.80
2019-03-26T01:06:53.022Z,5.47
2019-03-26T01:09:21.580Z,5.40
2019-03-26T01:11:49.869Z,5.60
2019-03-26T01:14:18.450Z,5.47
2019-03-26T01:16:46.731Z,4.87
2019-03-26T01:19:15.025Z,5.17
2019-03-26T01:21:43.305Z,5.13
2019-03-26T01:24:11.608Z,5.63
2019-03-26T01:26:39.882Z,5.13
2019-03-26T01:29:08.200Z,4.47
2019-03-26T01:31:36.477Z,4.60
2019-03-26T01:34:04.819Z,5.40
2019-03-26T01:36:33.131Z,5.07
2019-03-26T01:39:01.727Z,4.97
2019-03-26T01:41:30.307Z,5.30
2019-03-26T01:43:58.592Z,4.63
2019-03-26T01:46:27.164Z,4.40
2019-03-26T01:48:55.746Z,4.60
2019-03-26T01:51:24.045Z,4.10
2019-03-26T01:53:52.387Z,4.63
2019-03-26T01:56:20.687Z,5.10
2019-03-26T01:58:48.967Z,3.33
2019-03-26T02:01:17.257Z,4.30
2019-03-26T02:03:45.532Z,4.17
2019-03-26T02:06:13.827Z,3.93
2019-03-26T02:08:42.105Z,4.40
2019-03-26T02:11:10.399Z,4.43
2019-03-26T02:13:38.688Z,3.90
2019-03-26T02:16:07.303Z,4.47
2019-03-26T02:18:35.677Z,5.80
2019-03-26T02:21:04.820Z,5.37
2019-03-26T02:23:33.114Z,5.03
2019-03-26T02:26:01.432Z,4.67
2019-03-26T02:28:29.704Z,4.53
2019-03-26T02:30:57.991Z,4.43
2019-03-26T02:33:26.284Z,4.83
2019-03-26T02:35:54.559Z,5.47
2019-03-26T02:38:22.853Z,5.57
2019-03-26T02:40:51.135Z,4.43
2019-03-26T02:43:19.429Z,4.10
2019-03-26T02:45:47.718Z,4.57
2019-03-26T02:48:16.010Z,4.90
2019-03-26T02:50:44.293Z,5.27
2019-03-26T02:53:12.885Z,5.83
2019-03-26T02:55:41.168Z,5.00
2019-03-26T02:58:09.458Z,5.20
2019-03-26T03:00:37.738Z,5.20
2019-03-26T03:03:06.029Z,5.60
2019-03-26T03:05:36.199Z,5.43
2019-03-26T03:08:04.752Z,6.17
2019-03-26T03:10:33.032Z,6.23
2019-03-26T03:13:01.329Z,6.03
2019-03-26T03:15:29.603Z,6.40
2019-03-26T03:17:57.872Z,7.23
2019-03-26T03:20:26.251Z,7.20
2019-03-26T03:22:54.603Z,7.50
2019-03-26T03:25:22.887Z,8.20
2019-03-26T03:27:51.164Z,7.67
2019-03-26T03:30:19.523Z,7.80
2019-03-26T03:32:47.821Z,8.37
2019-03-26T03:35:16.096Z,9.07
2019-03-26T03:37:44.381Z,8.67
2019-03-26T03:40:12.753Z,9.10
2019-03-26T03:42:41.140Z,9.20
2019-03-26T03:45:11.119Z,8.13
2019-03-26T03:47:39.664Z,8.10
2019-03-26T03:50:10.586Z,7.47
2019-03-26T03:52:40.422Z,7.20
2019-03-26T03:55:09.218Z,6.77
2019-03-26T03:57:38.863Z,6.67
2019-03-26T04:00:10.572Z,7.27
2019-03-26T04:02:39.422Z,6.53
2019-03-26T04:05:08.287Z,6.00
2019-03-26T04:07:36.561Z,7.00
2019-03-26T04:10:06.184Z,6.27
2019-03-26T04:12:34.486Z,6.07
2019-03-26T04:15:03.016Z,6.40
2019-03-26T04:17:31.312Z,7.17
2019-03-26T04:19:59.596Z,7.57
2019-03-26T04:22:27.891Z,7.20
2019-03-26T04:24:56.172Z,7.70
2019-03-26T04:27:24.479Z,9.00
2019-03-26T04:29:52.748Z,13.07
2019-03-26T04:32:21.055Z,14.57
2019-03-26T04:34:49.626Z,15.53
2019-03-26T04:37:17.927Z,14.53
2019-03-26T04:39:46.204Z,13.17
2019-03-26T04:42:14.517Z,12.93
2019-03-26T04:44:42.802Z,11.97
2019-03-26T04:47:11.103Z,12.77
2019-03-26T04:49:39.382Z,12.33
2019-03-26T04:52:07.702Z,12.60
2019-03-26T04:54:35.986Z,12.00
2019-03-26T04:57:04.271Z,12.33
2019-03-26T04:59:33.470Z,11.20
2019-03-26T05:02:01.755Z,11.10
2019-03-26T05:04:30.297Z,12.13
2019-03-26T05:06:58.590Z,10.33
2019-03-26T05:09:26.880Z,9.10
2019-03-26T05:11:55.516Z,8.77
2019-03-26T05:14:23.810Z,8.03
2019-03-26T05:16:52.381Z,8.30
2019-03-26T05:19:20.975Z,8.83
2019-03-26T05:21:49.542Z,8.50
2019-03-26T05:24:17.856Z,8.50
2019-03-26T05:26:46.132Z,10.97
2019-03-26T05:29:14.433Z,11.00
2019-03-26T05:31:42.711Z,12.57
2019-03-26T05:34:11.014Z,12.27
2019-03-26T05:36:50.746Z,12.63
2019-03-26T05:39:09.316Z,12.17
2019-03-26T05:41:37.613Z,11.90
2019-03-26T05:44:05.971Z,12.10
2019-03-26T05:46:34.274Z,11.63
2019-03-26T05:49:02.549Z,11.43
2019-03-26T05:51:30.858Z,10.87
2019-03-26T05:53:59.206Z,11.00
2019-03-26T05:56:30.430Z,10.63
2019-03-26T05:58:57.554Z,10.30
2019-03-26T06:01:25.844Z,11.37
2019-03-26T06:03:54.138Z,10.70
2019-03-26T06:06:22.434Z,10.90
2019-03-26T06:08:50.721Z,10.80
2019-03-26T06:11:19.378Z,10.10
2019-03-26T06:13:47.662Z,10.77
2019-03-26T06:16:16.092Z,10.77
2019-03-26T06:18:44.619Z,10.17
2019-03-26T06:21:12.918Z,10.67
2019-03-26T06:23:41.204Z,10.63
2019-03-26T06:26:09.511Z,10.20
2019-03-26T06:28:38.128Z,9.03
2019-03-26T06:31:06.413Z,7.93
2019-03-26T06:33:34.708Z,6.93
2019-03-26T06:36:03.269Z,6.40
2019-03-26T06:38:31.589Z,6.20
2019-03-26T06:40:59.856Z,5.37
2019-03-26T06:43:28.147Z,4.50
2019-03-26T06:45:56.419Z,4.00
2019-03-26T06:48:24.714Z,3.17
2019-03-26T06:50:52.990Z,3.77
2019-03-26T06:53:21.606Z,2.60
2019-03-26T06:55:49.895Z,2.53
2019-03-26T06:58:18.180Z,3.13
2019-03-26T07:00:46.468Z,3.03
2019-03-26T07:03:14.749Z,2.67
2019-03-26T07:05:43.299Z,2.43
2019-03-26T07:08:11.576Z,2.90
2019-03-26T07:10:39.940Z,3.07
2019-03-26T07:13:08.228Z,3.13
2019-03-26T07:15:36.816Z,2.93
2019-03-26T07:18:05.366Z,3.53
2019-03-26T07:20:33.658Z,3.00
2019-03-26T07:23:01.932Z,2.80
2019-03-26T07:25:30.220Z,2.80
2019-03-26T07:27:58.499Z,2.80
2019-03-26T07:30:35.615Z,3.43
2019-03-26T07:33:03.884Z,2.53
2019-03-26T07:35:32.176Z,2.60
2019-03-26T07:38:00.467Z,3.57
2019-03-26T07:40:28.754Z,3.00
2019-03-26T07:42:57.041Z,3.43
2019-03-26T07:45:25.333Z,3.13
2019-03-26T07:47:53.931Z,3.23
2019-03-26T07:50:22.225Z,2.80
2019-03-26T07:52:50.526Z,3.23
2019-03-26T07:55:18.884Z,2.87
2019-03-26T07:57:47.170Z,3.37
2019-03-26T08:00:15.688Z,3.03
2019-03-26T08:02:44.220Z,3.03
2019-03-26T08:05:12.570Z,3.07
2019-03-26T08:07:40.933Z,3.10
2019-03-26T08:10:09.785Z,2.97
2019-03-26T08:12:38.211Z,3.00
2019-03-26T08:15:07.141Z,2.83
2019-03-26T08:17:35.759Z,3.27
2019-03-26T08:20:05.954Z,2.60
2019-03-26T08:22:34.510Z,3.30
2019-03-26T08:25:02.963Z,3.33
2019-03-26T08:27:31.259Z,2.13
2019-03-26T08:29:59.535Z,2.00
2019-03-26T08:32:28.148Z,2.77
2019-03-26T08:34:56.501Z,3.13
2019-03-26T08:37:27.865Z,2.50
2019-03-26T08:39:56.139Z,2.50
2019-03-26T08:42:24.438Z,2.90
2019-03-26T08:44:52.716Z,1.97
2019-03-26T08:47:21.013Z,2.33
2019-03-26T08:49:49.302Z,2.50
2019-03-26T08:52:17.591Z,3.90
2019-03-26T08:54:46.158Z,2.73
2019-03-26T08:57:14.449Z,3.00
2019-03-26T08:59:42.747Z,2.70
2019-03-26T09:02:11.340Z,2.70
2019-03-26T09:04:39.926Z,2.67
2019-03-26T09:07:10.948Z,2.87
2019-03-26T09:09:39.863Z,2.67
2019-03-26T09:12:08.389Z,2.63
2019-03-26T09:14:36.683Z,2.43
2019-03-26T09:17:05.300Z,2.63
2019-03-26T09:19:33.597Z,2.57
2019-03-26T09:22:01.878Z,3.40
2019-03-26T09:24:30.443Z,3.87
2019-03-26T09:26:58.724Z,2.60
2019-03-26T09:29:27.019Z,3.27
2019-03-26T09:31:55.304Z,3.60
2019-03-26T09:34:23.601Z,3.00
2019-03-26T09:36:51.884Z,3.00
2019-03-26T09:39:20.208Z,2.87
2019-03-26T09:41:48.664Z,2.77
2019-03-26T09:44:17.013Z,2.70
2019-03-26T09:46:45.655Z,2.90
2019-03-26T09:49:13.943Z,3.10
2019-03-26T09:51:42.515Z,3.03
2019-03-26T09:54:10.803Z,2.77
2019-03-26T09:56:39.369Z,3.47
2019-03-26T09:59:07.654Z,3.00
2019-03-26T10:01:36.226Z,3.30
2019-03-26T10:04:04.514Z,3.00
2019-03-26T10:06:32.812Z,3.17
2019-03-26T10:09:01.362Z,2.97
2019-03-26T10:11:29.661Z,2.77
2019-03-26T10:13:57.952Z,2.63
2019-03-26T10:16:26.281Z,3.13
2019-03-26T10:18:54.543Z,3.10
2019-03-26T10:21:22.849Z,3.23
2019-03-26T10:23:51.423Z,3.30
2019-03-26T10:26:20.009Z,3.90
2019-03-26T10:28:48.292Z,2.90
2019-03-26T10:31:16.562Z,4.17
2019-03-26T10:33:44.862Z,3.20
2019-03-26T10:36:13.151Z,2.90
2019-03-26T10:38:41.443Z,3.00
2019-03-26T10:41:09.728Z,3.30
2019-03-26T10:43:38.013Z,2.60
2019-03-26T10:46:06.301Z,2.93
2019-03-26T10:48:34.598Z,3.03
2019-03-26T10:51:02.880Z,3.43
2019-03-26T10:53:31.172Z,2.83
2019-03-26T10:55:59.447Z,3.70
2019-03-26T10:58:27.750Z,2.97
2019-03-26T11:00:56.030Z,2.57
2019-03-26T11:03:24.668Z,2.53
2019-03-26T11:05:53.012Z,2.80
2019-03-26T11:08:21.301Z,2.90
2019-03-26T11:10:49.644Z,2.77
2019-03-26T11:13:18.009Z,2.80
2019-03-26T11:15:46.289Z,2.57
2019-03-26T11:18:14.583Z,2.87
2019-03-26T11:20:42.930Z,3.20
2019-03-26T11:23:11.275Z,2.90
2019-03-26T11:25:39.572Z,2.87
2019-03-26T11:28:07.845Z,3.13
2019-03-26T11:30:36.205Z,3.20
2019-03-26T11:33:04.486Z,3.37
2019-03-26T11:35:32.775Z,2.67
2019-03-26T11:38:01.051Z,3.60
2019-03-26T11:40:29.433Z,3.47
2019-03-26T11:42:57.712Z,2.97
2019-03-26T11:45:26.079Z,3.20
2019-03-26T11:47:54.358Z,2.90
2019-03-26T11:50:22.800Z,2.53
2019-03-26T11:52:51.067Z,2.27
2019-03-26T11:55:21.817Z,2.93
2019-03-26T11:57:49.637Z,3.10
2019-03-26T12:00:20.146Z,2.30
2019-03-26T12:02:48.427Z,2.23
2019-03-26T12:05:17.080Z,2.70
2019-03-26T12:07:45.307Z,2.90
2019-03-26T12:10:13.971Z,2.80
2019-03-26T12:12:42.930Z,2.93
2019-03-26T12:15:11.520Z,2.53
2019-03-26T12:17:39.813Z,2.57
2019-03-26T12:20:09.448Z,2.43
2019-03-26T12:22:37.748Z,3.20
2019-03-26T12:25:06.566Z,2.90
2019-03-26T12:27:36.469Z,2.90
2019-03-26T12:30:08.969Z,3.27
2019-03-26T12:32:40.538Z,2.57
2019-03-26T12:35:08.021Z,2.53
2019-03-26T12:37:36.386Z,2.80
2019-03-26T12:40:07.210Z,2.90
2019-03-26T12:42:35.507Z,2.63
2019-03-26T12:45:06.972Z,3.30
2019-03-26T12:47:35.038Z,2.53
2019-03-26T12:50:04.999Z,2.97
2019-03-26T12:52:33.291Z,2.60
2019-03-26T12:55:01.563Z,2.60
2019-03-26T12:57:29.867Z,2.83
2019-03-26T12:59:58.146Z,2.53
2019-03-26T13:02:26.451Z,2.93
2019-03-26T13:04:54.730Z,2.80
2019-03-26T13:07:23.024Z,2.43
2019-03-26T13:09:51.670Z,3.00
2019-03-26T13:12:19.953Z,4.50
2019-03-26T13:14:48.250Z,4.73
2019-03-26T13:17:16.612Z,2.73
2019-03-26T13:19:44.915Z,4.83
2019-03-26T13:22:13.219Z,4.27
2019-03-26T13:24:41.825Z,4.17
2019-03-26T13:27:10.106Z,3.23
2019-03-26T13:29:38.402Z,2.83
2019-03-26T13:32:07.062Z,3.10
2019-03-26T13:34:35.467Z,3.30
2019-03-26T13:37:03.831Z,3.27
2019-03-26T13:39:32.127Z,2.83
2019-03-26T13:42:00.397Z,2.90
2019-03-26T13:44:28.690Z,2.80
2019-03-26T13:46:56.965Z,2.93
2019-03-26T13:49:25.257Z,3.20
2019-03-26T13:51:53.553Z,3.37
2019-03-26T13:54:22.161Z,3.73
2019-03-26T13:56:50.447Z,2.60
2019-03-26T13:59:19.024Z,3.03
2019-03-26T14:01:47.380Z,2.57
2019-03-26T14:04:18.721Z,3.03
2019-03-26T14:06:46.991Z,3.87
2019-03-26T14:09:15.270Z,2.87
2019-03-26T14:11:43.572Z,3.00
2019-03-26T14:14:13.187Z,3.53
2019-03-26T14:16:41.778Z,2.97
2019-03-26T14:19:10.115Z,2.90
2019-03-26T14:21:38.416Z,3.60
2019-03-26T14:24:06.706Z,3.43
2019-03-26T14:26:35.003Z,2.93
2019-03-26T14:29:03.287Z,3.50
2019-03-26T14:31:32.010Z,3.20
2019-03-26T14:34:00.629Z,3.20
2019-03-26T14:36:28.928Z,2.87
2019-03-26T14:38:57.210Z,3.17
2019-03-26T14:41:25.513Z,2.97
2019-03-26T14:43:53.802Z,3.20
2019-03-26T14:46:22.084Z,2.93
2019-03-26T14:48:50.388Z,3.30
2019-03-26T14:51:18.668Z,2.87
2019-03-26T14:53:46.961Z,2.53
2019-03-26T14:56:15.238Z,2.50
2019-03-26T14:58:43.799Z,2.70
2019-03-26T15:01:12.148Z,2.70
2019-03-26T15:03:40.447Z,2.77
2019-03-26T15:06:08.804Z,3.30
2019-03-26T15:08:37.125Z,3.23
2019-03-26T15:11:08.244Z,3.77
2019-03-26T15:13:35.421Z,3.80
2019-03-26T15:16:03.995Z,3.27
2019-03-26T15:18:32.292Z,3.47
2019-03-26T15:21:00.662Z,2.73
2019-03-26T15:23:28.936Z,2.83
2019-03-26T15:25:57.242Z,3.53
2019-03-26T15:28:25.525Z,3.57
2019-03-26T15:30:53.804Z,3.10
2019-03-26T15:33:22.089Z,3.40
2019-03-26T15:35:50.379Z,3.40
2019-03-26T15:38:18.899Z,3.53
2019-03-26T15:40:47.472Z,3.23
2019-03-26T15:43:15.760Z,3.67
2019-03-26T15:45:44.125Z,3.13
2019-03-26T15:48:12.406Z,3.37
2019-03-26T15:50:42.507Z,4.57
2019-03-26T15:53:11.076Z,3.67
2019-03-26T15:55:39.817Z,3.17
2019-03-26T15:58:08.174Z,3.37
2019-03-26T16:00:36.517Z,3.43
2019-03-26T16:03:04.970Z,3.40
2019-03-26T16:05:33.265Z,3.70
2019-03-26T16:08:01.571Z,3.43
2019-03-26T16:10:29.866Z,4.20
2019-03-26T16:12:58.554Z,4.27
2019-03-26T16:15:27.338Z,3.90
2019-03-26T16:17:55.627Z,3.57
2019-03-26T16:20:24.198Z,3.13
2019-03-26T16:22:52.788Z,4.20
2019-03-26T16:25:21.092Z,3.80
2019-03-26T16:27:50.721Z,3.60
2019-03-26T16:30:19.477Z,4.10
2019-03-26T16:32:47.804Z,4.23
2019-03-26T16:35:16.095Z,4.00
2019-03-26T16:37:44.400Z,3.70
2019-03-26T16:40:12.995Z,3.70
2019-03-26T16:42:42.378Z,4.20
2019-03-26T16:45:10.873Z,3.93
2019-03-26T16:47:39.169Z,3.57
2019-03-26T16:50:07.893Z,3.67
2019-03-26T16:52:36.190Z,3.27
2019-03-26T16:55:06.054Z,4.13
2019-03-26T16:57:34.349Z,4.10
2019-03-26T17:00:02.775Z,4.00
2019-03-26T17:02:31.455Z,4.17
2019-03-26T17:05:00.038Z,3.80
2019-03-26T17:07:28.360Z,3.83
2019-03-26T17:09:56.900Z,3.47
2019-03-26T17:12:26.158Z,3.57
2019-03-26T17:14:54.493Z,3.57
2019-03-26T17:17:22.798Z,3.57
2019-03-26T17:19:51.101Z,4.27
2019-03-26T17:22:19.386Z,3.27
2019-03-26T17:24:47.680Z,4.30
2019-03-26T17:27:15.962Z,4.00
2019-03-26T17:29:44.564Z,3.93
2019-03-26T17:51:00.288Z,3.77
2019-03-26T17:53:28.586Z,3.70
2019-03-26T17:55:56.907Z,4.10
2019-03-26T17:58:25.208Z,3.60
2019-03-26T18:03:35.134Z,3.50
2019-03-26T18:06:03.437Z,4.33
2019-03-26T18:08:31.749Z,4.40
2019-03-26T18:11:00.051Z,4.10
2019-03-26T18:16:04.019Z,3.93
2019-03-26T18:18:32.305Z,3.53
2019-03-26T18:21:00.625Z,4.03
2019-03-26T18:23:36.796Z,6.40
2019-03-26T18:26:05.180Z,4.13
2019-03-26T18:28:33.460Z,4.30
2019-03-26T18:31:01.741Z,3.80
2019-03-26T18:33:30.043Z,3.77
2019-03-26T18:35:58.326Z,3.73
2019-03-26T18:38:26.641Z,4.60
2019-03-26T18:40:54.927Z,4.03
2019-03-26T18:43:23.221Z,3.40
2019-03-26T18:45:51.566Z,3.97
2019-03-26T18:48:19.873Z,4.57
2019-03-26T18:50:48.161Z,4.00
2019-03-26T18:53:16.451Z,4.00
2019-03-26T18:55:44.739Z,3.90
2019-03-26T18:58:13.029Z,4.03
2019-03-26T19:00:41.379Z,4.10
2019-03-26T19:03:09.842Z,4.17
2019-03-26T19:05:38.392Z,4.03
2019-03-26T19:08:06.753Z,5.07
2019-03-26T19:10:35.605Z,5.10
2019-03-26T19:13:19.070Z,4.93
2019-03-26T19:15:39.696Z,5.10
2019-03-26T19:18:08.070Z,8.23
2019-03-26T19:20:36.358Z,5.57
2019-03-26T19:23:04.707Z,4.63
2019-03-26T19:25:32.996Z,4.77
2019-03-26T19:28:01.277Z,7.70
2019-03-26T19:30:29.583Z,5.63
2019-03-26T19:32:58.017Z,4.83
2019-03-26T19:35:26.332Z,5.50
2019-03-26T19:37:54.615Z,5.80
2019-03-26T19:40:22.909Z,4.90
2019-03-26T19:42:51.206Z,4.67
2019-03-26T19:45:19.504Z,5.17
2019-03-26T19:47:48.126Z,4.80
2019-03-26T19:50:16.858Z,5.47
2019-03-26T19:52:45.145Z,4.60
2019-03-26T19:55:13.513Z,5.03
2019-03-26T19:57:41.862Z,4.10
2019-03-26T20:00:13.355Z,4.80
2019-03-26T20:02:41.614Z,4.23
2019-03-26T20:05:15.712Z,4.73
2019-03-26T20:07:43.965Z,4.57
2019-03-26T20:10:12.971Z,4.87
2019-03-26T20:12:41.266Z,4.47
2019-03-26T20:15:11.200Z,4.70
2019-03-26T20:17:39.487Z,4.47
2019-03-26T20:20:08.703Z,5.50
2019-03-26T20:22:40.871Z,4.63
2019-03-26T20:25:09.647Z,5.03
2019-03-26T20:27:38.015Z,5.70
2019-03-26T20:30:07.644Z,5.60
2019-03-26T20:32:36.033Z,4.37
2019-03-26T20:35:08.823Z,4.43
2019-03-26T20:37:37.367Z,4.43
2019-03-26T20:40:09.005Z,5.70
2019-03-26T20:42:37.829Z,6.30
2019-03-26T20:45:08.413Z,5.70
2019-03-26T20:47:36.722Z,5.07
2019-03-26T20:50:07.534Z,5.13
2019-03-26T20:52:35.942Z,4.50
2019-03-26T20:55:06.454Z,4.60
2019-03-26T20:57:34.740Z,5.37
2019-03-26T21:00:03.386Z,4.50
2019-03-26T21:02:31.701Z,5.07
2019-03-26T21:04:59.975Z,4.67
2019-03-26T21:07:28.313Z,4.80
2019-03-26T21:09:56.608Z,5.40
2019-03-26T21:12:24.897Z,5.03
2019-03-26T21:14:53.187Z,5.70
2019-03-26T21:17:21.494Z,4.90
2019-03-26T21:19:49.797Z,5.03
2019-03-26T21:22:18.069Z,4.87
2019-03-26T21:24:46.386Z,5.37
2019-03-26T21:27:14.746Z,4.70
2019-03-26T21:29:43.075Z,5.03
2019-03-26T21:32:11.367Z,4.53
2019-03-26T21:34:39.853Z,4.90
2019-03-26T21:37:08.214Z,5.70
2019-03-26T21:39:36.515Z,5.20
2019-03-26T21:42:04.801Z,5.97
2019-03-26T21:44:33.186Z,5.70
2019-03-26T21:47:01.469Z,5.10
2019-03-26T21:49:29.778Z,4.77
2019-03-26T21:51:58.116Z,5.10
2019-03-26T21:54:26.416Z,5.53
2019-03-26T21:56:54.695Z,5.27
2019-03-26T21:59:22.993Z,5.07
2019-03-26T22:01:51.265Z,5.23
2019-03-26T22:04:19.560Z,5.70
2019-03-26T22:06:47.835Z,6.33
2019-03-26T22:09:16.122Z,5.23
2019-03-26T22:11:50.063Z,6.30
2019-03-26T22:14:18.410Z,6.47
2019-03-26T22:16:44.521Z,5.97
2019-03-26T22:19:12.809Z,5.47
2019-03-26T22:21:41.089Z,6.40
2019-03-26T22:24:09.385Z,5.50
2019-03-26T22:26:37.677Z,6.10
2019-03-26T22:29:05.981Z,5.83
2019-03-26T22:31:34.271Z,6.00
2019-03-26T22:34:02.567Z,6.40
2019-03-26T22:36:31.098Z,5.60
2019-03-26T22:38:59.381Z,6.67
2019-03-26T22:41:27.680Z,6.60
2019-03-26T22:43:56.052Z,5.93
2019-03-26T22:46:24.342Z,6.27
2019-03-26T22:48:52.628Z,5.77
2019-03-26T22:51:20.920Z,5.63
2019-03-26T22:53:49.201Z,5.70
2019-03-26T22:56:17.479Z,5.50
2019-03-26T22:58:45.767Z,5.63
2019-03-26T23:01:14.124Z,5.03
2019-03-26T23:03:42.416Z,5.30
2019-03-26T23:06:10.764Z,4.87
2019-03-26T23:08:39.058Z,4.27
2019-03-26T23:11:07.331Z,5.13
2019-03-26T23:13:35.625Z,4.87
2019-03-26T23:16:03.979Z,5.40
2019-03-26T23:18:32.369Z,4.90
2019-03-26T23:21:00.651Z,5.57
2019-03-26T23:23:28.949Z,5.80
2019-03-26T23:25:57.229Z,5.30
2019-03-26T23:28:27.448Z,5.23
2019-03-26T23:30:55.736Z,5.13
2019-03-26T23:33:24.029Z,5.30
2019-03-26T23:35:52.316Z,5.50
2019-03-26T23:38:20.615Z,4.77
2019-03-26T23:40:48.900Z,5.00
2019-03-26T23:43:17.206Z,5.40
2019-03-26T23:45:45.490Z,5.40
2019-03-26T23:48:13.858Z,4.83
2019-03-26T23:50:42.155Z,4.53
2019-03-26T23:53:10.450Z,5.47
2019-03-26T23:55:38.987Z,5.50
2019-03-26T23:58:07.265Z,5.10
